Time;durP1;ratioP1;P1;durP2;ratioP2;P2;SDS_P1;SDS_P2;PMS_P1;PMS_P2;Temp;Humidity;BMP_temperature;BMP_pressure;BME280_temperature;BME280_humidity;BME280_pressure;Samples;Min_cycle;Max_cycle;Signal;HPM_P1;HPM_P2
2023/09/11 00:00:08;;;;;;;5.90;4.75;;;19.30;99.90;;;;;;5014436;28;20237;-56
2023/09/11 00:02:35;;;;;;;5.97;5.47;;;19.30;99.90;;;;;;5013292;28;20242;-57
2023/09/11 00:05:02;;;;;;;10.23;5.35;;;19.20;99.90;;;;;;5013622;28;20632;-57
2023/09/11 00:07:29;;;;;;;6.78;5.07;;;19.20;99.90;;;;;;5013816;28;20202;-57
2023/09/11 00:09:57;;;;;;;5.20;4.63;;;19.30;99.90;;;;;;5013515;28;20321;-57
2023/09/11 00:12:23;;;;;;;7.90;5.68;;;19.30;99.90;;;;;;5013170;28;20229;-57
2023/09/11 00:14:50;;;;;;;6.60;4.95;;;19.30;99.90;;;;;;5013319;28;20203;-57
2023/09/11 00:17:17;;;;;;;5.90;5.18;;;19.20;99.90;;;;;;5013182;28;20210;-58
2023/09/11 00:19:43;;;;;;;6.93;5.13;;;19.10;99.90;;;;;;5013190;28;20327;-57
2023/09/11 00:22:10;;;;;;;6.00;5.03;;;19.20;99.90;;;;;;5013258;28;20214;-56
2023/09/11 00:24:37;;;;;;;6.00;5.15;;;19.20;99.90;;;;;;5013217;28;20628;-57
2023/09/11 00:27:05;;;;;;;8.18;4.57;;;19.20;99.90;;;;;;5013140;28;20211;-57
2023/09/11 00:29:32;;;;;;;8.30;4.80;;;19.30;99.90;;;;;;5013219;28;20722;-57
2023/09/11 00:31:59;;;;;;;5.78;5.15;;;19.30;99.90;;;;;;5012814;28;20492;-57
2023/09/11 00:34:25;;;;;;;5.47;4.90;;;19.30;99.90;;;;;;5013029;28;20210;-57
2023/09/11 00:36:52;;;;;;;6.97;5.22;;;19.30;99.90;;;;;;5013059;28;20271;-57
2023/09/11 00:39:19;;;;;;;8.73;5.45;;;19.30;99.90;;;;;;5012745;28;20680;-57
2023/09/11 00:41:46;;;;;;;8.10;5.50;;;19.30;99.90;;;;;;5012865;28;20689;-58
2023/09/11 00:44:14;;;;;;;6.85;5.60;;;19.40;99.90;;;;;;5012598;28;20665;-57
2023/09/11 00:46:41;;;;;;;8.43;5.07;;;19.30;99.90;;;;;;5012834;28;20211;-57
2023/09/11 00:49:09;;;;;;;9.10;5.22;;;19.30;99.90;;;;;;5012692;28;20234;-56
2023/09/11 00:51:37;;;;;;;6.20;4.97;;;19.30;99.90;;;;;;5013012;28;20214;-56
2023/09/11 00:54:05;;;;;;;5.45;4.95;;;19.30;99.90;;;;;;5012326;28;20211;-56
2023/09/11 00:56:31;;;;;;;6.60;4.88;;;19.30;99.90;;;;;;5012783;28;20207;-57
2023/09/11 00:58:59;;;;;;;5.43;4.93;;;19.30;99.90;;;;;;5012311;28;20234;-57
2023/09/11 01:01:28;;;;;;;6.25;5.55;;;19.30;99.90;;;;;;5012609;28;20210;-58
2023/09/11 01:03:55;;;;;;;7.35;4.90;;;19.30;99.90;;;;;;5012165;28;20211;-57
2023/09/11 01:06:22;;;;;;;5.70;5.10;;;19.30;99.90;;;;;;5012557;28;20688;-58
2023/09/11 01:08:51;;;;;;;7.13;5.40;;;19.20;99.90;;;;;;5011467;28;20297;-57
2023/09/11 01:11:18;;;;;;;6.45;5.30;;;19.20;99.90;;;;;;5012201;28;20203;-58
2023/09/11 01:13:45;;;;;;;9.23;5.38;;;19.10;99.90;;;;;;5012325;28;20211;-57
2023/09/11 01:16:23;;;;;;;6.22;5.18;;;19.00;99.90;;;;;;5012179;28;20265;-57
2023/09/11 01:18:59;;;;;;;8.52;5.68;;;19.00;99.90;;;;;;5011854;28;20313;-57
2023/09/11 01:21:49;;;;;;;5.85;5.22;;;19.00;99.90;;;;;;5004889;28;20229;-58
2023/09/11 01:24:51;;;;;;;5.70;5.20;;;19.00;99.90;;;;;;5007060;28;20715;-56
2023/09/11 01:27:37;;;;;;;11.13;5.82;;;18.90;99.90;;;;;;5012098;28;20302;-57
2023/09/11 01:30:14;;;;;;;8.15;5.15;;;18.90;99.90;;;;;;5108635;27;20555;-56
2023/09/11 01:32:42;;;;;;;6.70;5.40;;;18.80;99.90;;;;;;5088093;28;20207;-58
2023/09/11 01:35:09;;;;;;;7.65;5.60;;;18.80;99.90;;;;;;5088442;28;20208;-57
2023/09/11 01:37:35;;;;;;;8.57;5.20;;;18.70;99.90;;;;;;5088339;28;20614;-57
2023/09/11 01:40:02;;;;;;;8.20;5.38;;;18.60;99.90;;;;;;5088179;28;20224;-57
2023/09/11 01:42:36;;;;;;;6.43;5.50;;;18.60;99.90;;;;;;5110209;22;20611;-55
2023/09/11 01:45:06;;;;;;;8.23;5.60;;;18.60;99.90;;;;;;5048191;28;20213;-55
2023/09/11 01:47:34;;;;;;;7.40;5.85;;;18.60;99.90;;;;;;5048293;28;20206;-58
2023/09/11 01:50:02;;;;;;;5.97;5.35;;;18.60;99.90;;;;;;5048006;28;20221;-55
2023/09/11 01:52:30;;;;;;;7.97;6.05;;;18.70;99.90;;;;;;5047976;28;20205;-57
2023/09/11 01:54:58;;;;;;;8.77;5.90;;;18.60;99.90;;;;;;5039401;28;20755;-57
2023/09/11 01:57:27;;;;;;;8.77;6.03;;;18.60;99.90;;;;;;5036358;28;20206;-56
2023/09/11 01:59:54;;;;;;;9.05;5.22;;;18.60;99.90;;;;;;5036588;28;20230;-56
2023/09/11 02:02:20;;;;;;;10.65;6.38;;;18.60;99.90;;;;;;5039152;28;20251;-55
2023/09/11 02:04:49;;;;;;;11.23;5.90;;;18.60;99.90;;;;;;5039480;28;20208;-56
2023/09/11 02:07:16;;;;;;;6.80;5.90;;;18.60;99.90;;;;;;5036618;28;20636;-56
2023/09/11 02:09:43;;;;;;;7.55;5.90;;;18.60;99.90;;;;;;5035958;28;20267;-57
2023/09/11 02:12:09;;;;;;;8.68;6.10;;;18.60;99.90;;;;;;5037568;28;20210;-55
2023/09/11 02:14:36;;;;;;;7.15;5.28;;;18.60;99.90;;;;;;5039419;28;20225;-55
2023/09/11 02:17:03;;;;;;;7.05;5.32;;;18.60;99.90;;;;;;5038252;28;20640;-57
2023/09/11 02:19:30;;;;;;;7.05;5.72;;;18.50;99.90;;;;;;5036084;28;20539;-55
2023/09/11 02:21:58;;;;;;;6.30;5.35;;;18.50;99.90;;;;;;5035763;28;20252;-57
2023/09/11 02:24:25;;;;;;;6.05;5.45;;;18.50;99.90;;;;;;5038966;28;20244;-57
2023/09/11 02:26:52;;;;;;;7.60;5.68;;;18.50;99.90;;;;;;5039440;28;20201;-56
2023/09/11 02:29:18;;;;;;;7.65;5.80;;;18.50;99.90;;;;;;5036043;28;20594;-56
2023/09/11 02:31:45;;;;;;;7.05;5.47;;;18.40;99.90;;;;;;5035970;28;20736;-55
2023/09/11 02:34:12;;;;;;;7.28;5.82;;;18.40;99.90;;;;;;5037529;28;20244;-55
2023/09/11 02:36:39;;;;;;;7.50;5.50;;;18.30;99.90;;;;;;5039359;28;20202;-58
2023/09/11 02:39:07;;;;;;;7.95;5.60;;;18.20;99.90;;;;;;5037872;28;20209;-56
2023/09/11 02:41:33;;;;;;;8.13;5.93;;;18.20;99.90;;;;;;5022671;28;20617;-55
2023/09/11 02:44:00;;;;;;;11.27;5.75;;;18.30;99.90;;;;;;5022261;28;20234;-56
2023/09/11 02:46:27;;;;;;;9.30;6.32;;;18.30;99.90;;;;;;5025644;28;20289;-55
2023/09/11 02:48:53;;;;;;;10.65;6.22;;;18.30;99.90;;;;;;5025417;28;20737;-56
2023/09/11 02:51:20;;;;;;;7.00;6.30;;;18.30;99.90;;;;;;5022380;28;20210;-56
2023/09/11 02:53:47;;;;;;;8.48;6.47;;;18.30;99.90;;;;;;5021781;28;20218;-55
2023/09/11 02:56:15;;;;;;;6.60;5.90;;;18.40;99.90;;;;;;5024084;28;20214;-56
2023/09/11 02:58:41;;;;;;;11.55;6.70;;;18.50;99.90;;;;;;5025498;28;20209;-55
2023/09/11 03:01:08;;;;;;;8.13;6.25;;;18.50;99.90;;;;;;5023749;28;20602;-55
2023/09/11 03:03:35;;;;;;;10.93;6.30;;;18.50;99.90;;;;;;5021593;28;20303;-56
2023/09/11 03:06:03;;;;;;;11.23;6.40;;;18.50;99.90;;;;;;5022155;28;20233;-55
2023/09/11 03:08:30;;;;;;;9.25;6.20;;;18.50;99.90;;;;;;5025392;28;20215;-55
2023/09/11 03:11:06;;;;;;;7.05;6.30;;;18.50;99.90;;;;;;5025330;28;20198;-57
2023/09/11 03:13:34;;;;;;;7.10;6.40;;;18.60;99.90;;;;;;5014904;28;20252;-55
2023/09/11 03:16:08;;;;;;;7.75;6.43;;;18.50;99.90;;;;;;5021785;28;20211;-56
2023/09/11 03:18:35;;;;;;;8.82;6.40;;;18.50;99.90;;;;;;5025141;28;20655;-55
2023/09/11 03:21:02;;;;;;;8.30;6.28;;;18.50;99.90;;;;;;5024639;28;20210;-56
2023/09/11 03:23:29;;;;;;;7.43;6.30;;;18.50;99.90;;;;;;5021300;28;20766;-56
2023/09/11 03:25:56;;;;;;;9.23;7.00;;;18.60;99.90;;;;;;5021653;28;20210;-57
2023/09/11 03:28:23;;;;;;;7.43;6.45;;;18.60;99.90;;;;;;5024667;28;20214;-59
2023/09/11 03:30:51;;;;;;;8.90;6.28;;;18.60;99.90;;;;;;5024887;28;20198;-56
2023/09/11 03:33:18;;;;;;;8.73;6.47;;;18.50;99.90;;;;;;5021568;28;20603;-56
2023/09/11 03:35:46;;;;;;;7.95;7.15;;;18.50;99.90;;;;;;5021612;28;20207;-57
2023/09/11 03:38:13;;;;;;;6.63;5.95;;;18.50;99.90;;;;;;5023279;28;20226;-57
2023/09/11 03:40:41;;;;;;;7.68;6.90;;;18.50;99.90;;;;;;5024893;28;20270;-56
2023/09/11 03:43:08;;;;;;;8.10;6.85;;;18.50;99.90;;;;;;5022969;28;20360;-56
2023/09/11 03:45:35;;;;;;;7.45;6.22;;;18.40;99.90;;;;;;5021139;28;20223;-55
2023/09/11 03:48:03;;;;;;;10.60;8.32;;;18.30;99.90;;;;;;5021288;28;20218;-56
2023/09/11 03:50:30;;;;;;;8.77;7.22;;;18.30;99.90;;;;;;5024355;28;20583;-55
2023/09/11 03:52:56;;;;;;;7.68;6.88;;;18.30;99.90;;;;;;5023235;28;20249;-56
2023/09/11 03:55:23;;;;;;;9.30;7.28;;;18.20;99.90;;;;;;5021157;28;20216;-58
2023/09/11 03:57:50;;;;;;;7.72;6.85;;;18.20;99.90;;;;;;5021091;28;20203;-55
2023/09/11 04:00:17;;;;;;;11.38;7.78;;;18.20;99.90;;;;;;5023030;28;20210;-57
2023/09/11 04:02:43;;;;;;;11.23;8.90;;;18.20;99.90;;;;;;5024106;28;20222;-56
2023/09/11 04:05:11;;;;;;;9.85;7.57;;;18.10;99.90;;;;;;5022671;28;20651;-56
2023/09/11 04:07:38;;;;;;;9.40;7.80;;;18.00;99.90;;;;;;5020722;28;20689;-55
2023/09/11 04:10:06;;;;;;;10.75;8.05;;;18.00;99.90;;;;;;5021215;28;20316;-56
2023/09/11 04:12:33;;;;;;;9.55;8.50;;;18.00;99.90;;;;;;5023797;28;20268;-57
2023/09/11 04:15:00;;;;;;;16.60;8.60;;;18.00;99.90;;;;;;5023865;28;20209;-60
2023/09/11 04:17:26;;;;;;;10.10;8.10;;;17.90;99.90;;;;;;5020676;28;20207;-55
2023/09/11 04:19:53;;;;;;;9.73;7.78;;;17.90;99.90;;;;;;5020851;28;20210;-55
2023/09/11 04:22:21;;;;;;;13.70;8.48;;;17.90;99.90;;;;;;5023183;28;20258;-57
2023/09/11 04:24:48;;;;;;;7.85;7.13;;;17.90;99.90;;;;;;5023903;28;20205;-58
2023/09/11 04:27:15;;;;;;;11.75;7.95;;;17.90;99.90;;;;;;5021681;28;20217;-56
2023/09/11 04:29:42;;;;;;;8.48;7.68;;;17.80;99.90;;;;;;5020492;28;20257;-56
2023/09/11 04:32:09;;;;;;;9.05;8.15;;;17.80;99.90;;;;;;5021300;28;20206;-56
2023/09/11 04:34:35;;;;;;;11.20;7.60;;;17.80;99.90;;;;;;5023569;28;20325;-55
2023/09/11 04:37:02;;;;;;;11.43;7.20;;;17.80;99.90;;;;;;5023327;28;20207;-57
2023/09/11 04:39:30;;;;;;;8.60;6.72;;;17.80;99.90;;;;;;5021036;28;20234;-57
2023/09/11 04:41:56;;;;;;;18.10;15.25;;;17.80;99.90;;;;;;5022736;28;20214;-55
2023/09/11 04:44:23;;;;;;;11.23;7.82;;;17.80;99.90;;;;;;5025470;28;20225;-55
2023/09/11 04:46:49;;;;;;;11.55;8.40;;;17.70;99.90;;;;;;5027737;28;20202;-56
2023/09/11 04:49:16;;;;;;;11.75;8.13;;;17.70;99.90;;;;;;5022419;28;20234;-56
2023/09/11 04:51:43;;;;;;;8.80;6.88;;;17.70;99.90;;;;;;5019924;28;20206;-56
2023/09/11 04:54:09;;;;;;;11.50;8.40;;;17.70;99.90;;;;;;5020922;28;20231;-56
2023/09/11 04:56:37;;;;;;;9.23;7.10;;;17.70;99.90;;;;;;5023616;28;20210;-55
2023/09/11 04:59:04;;;;;;;10.50;7.53;;;17.80;99.90;;;;;;5023201;28;20232;-55
2023/09/11 05:01:31;;;;;;;11.05;7.80;;;17.80;99.90;;;;;;5019919;28;20203;-57
2023/09/11 05:03:57;;;;;;;8.15;6.93;;;17.80;99.90;;;;;;5019271;28;20223;-56
2023/09/11 05:06:24;;;;;;;8.93;7.20;;;17.90;99.90;;;;;;5022782;28;20308;-55
2023/09/11 05:08:51;;;;;;;13.80;8.43;;;17.80;99.90;;;;;;5023035;28;20225;-56
2023/09/11 05:11:18;;;;;;;11.95;7.70;;;17.90;99.90;;;;;;5020454;28;20202;-55
2023/09/11 05:13:46;;;;;;;8.98;7.72;;;17.90;99.90;;;;;;5019494;28;20234;-56
2023/09/11 05:16:13;;;;;;;9.80;7.95;;;17.90;99.90;;;;;;5021079;28;20712;-57
2023/09/11 05:18:39;;;;;;;13.05;8.30;;;17.90;99.90;;;;;;5023053;28;20230;-56
2023/09/11 05:21:06;;;;;;;11.18;8.13;;;17.90;99.90;;;;;;5022281;28;20209;-56
2023/09/11 05:23:33;;;;;;;8.35;7.45;;;18.00;99.90;;;;;;5019055;28;20222;-56
2023/09/11 05:26:00;;;;;;;9.75;8.18;;;18.00;99.90;;;;;;5019609;28;20207;-56
2023/09/11 05:28:26;;;;;;;9.65;8.48;;;18.00;99.90;;;;;;5023327;28;20224;-56
2023/09/11 05:30:55;;;;;;;9.25;8.30;;;18.00;99.90;;;;;;5022854;28;20222;-57
2023/09/11 05:33:21;;;;;;;9.93;7.85;;;18.10;99.90;;;;;;5019640;28;20638;-57
2023/09/11 05:35:48;;;;;;;10.43;7.90;;;18.20;99.90;;;;;;5019585;28;20210;-56
2023/09/11 05:38:15;;;;;;;12.60;7.90;;;18.30;99.90;;;;;;5020850;28;20210;-57
2023/09/11 05:40:41;;;;;;;11.52;7.85;;;18.40;99.90;;;;;;5022395;28;20225;-56
2023/09/11 05:43:08;;;;;;;11.82;7.85;;;18.40;99.90;;;;;;5021294;28;20230;-56
2023/09/11 05:45:35;;;;;;;11.00;7.95;;;18.40;99.90;;;;;;5019440;28;20529;-56
2023/09/11 05:48:03;;;;;;;9.73;8.02;;;18.60;99.90;;;;;;5019196;28;20249;-56
2023/09/11 05:50:30;;;;;;;11.60;7.20;;;18.60;99.90;;;;;;5019278;28;20603;-56
2023/09/11 05:52:57;;;;;;;9.57;6.53;;;18.80;99.90;;;;;;5019037;28;20239;-56
2023/09/11 05:55:23;;;;;;;10.43;7.10;;;19.40;99.90;;;;;;5022062;28;20272;-57
2023/09/11 05:57:50;;;;;;;9.85;6.47;;;20.50;99.90;;;;;;5022770;28;20209;-56
2023/09/11 06:00:17;;;;;;;9.85;6.43;;;21.70;99.90;;;;;;5020399;28;20198;-56
2023/09/11 06:02:46;;;;;;;11.30;6.40;;;23.00;99.90;;;;;;5018790;28;20222;-55
2023/09/11 06:05:15;;;;;;;7.60;6.07;;;24.20;99.90;;;;;;5020097;28;20673;-56
2023/09/11 06:07:42;;;;;;;9.27;6.10;;;25.20;99.90;;;;;;5022257;28;20202;-57
2023/09/11 06:10:10;;;;;;;7.25;6.20;;;26.00;99.90;;;;;;5021508;28;20226;-57
2023/09/11 06:12:37;;;;;;;7.15;5.97;;;26.80;99.90;;;;;;5018785;28;20677;-56
2023/09/11 06:15:05;;;;;;;12.32;9.85;;;27.40;99.90;;;;;;5019530;28;20211;-57
2023/09/11 06:17:31;;;;;;;6.68;5.80;;;28.00;99.90;;;;;;5025935;28;20230;-56
2023/09/11 06:19:58;;;;;;;9.75;5.68;;;28.60;99.90;;;;;;5025847;28;20206;-56
2023/09/11 06:22:26;;;;;;;7.00;5.88;;;29.10;99.90;;;;;;5022577;28;20671;-54
2023/09/11 06:24:53;;;;;;;11.23;6.32;;;29.80;99.90;;;;;;5022601;28;20298;-56
2023/09/11 06:27:20;;;;;;;7.40;6.63;;;30.40;99.90;;;;;;5024553;28;20692;-55
2023/09/11 06:29:46;;;;;;;9.57;6.88;;;30.80;99.90;;;;;;5025842;28;20238;-55
2023/09/11 06:32:15;;;;;;;12.63;6.65;;;31.10;99.90;;;;;;5024288;28;20213;-55
2023/09/11 06:34:42;;;;;;;9.32;6.55;;;31.30;99.90;;;;;;5022321;28;20295;-56
2023/09/11 06:37:09;;;;;;;9.57;6.00;;;31.20;99.90;;;;;;5023088;28;20211;-58
2023/09/11 06:39:37;;;;;;;10.35;6.18;;;30.70;99.90;;;;;;5025890;28;20241;-55
2023/09/11 06:42:04;;;;;;;6.93;5.75;;;30.30;99.90;;;;;;5025504;28;20695;-56
2023/09/11 06:44:31;;;;;;;7.95;6.20;;;29.90;99.90;;;;;;5014564;28;20254;-56
2023/09/11 06:46:58;;;;;;;9.35;6.45;;;29.20;99.90;;;;;;5022134;28;20211;-56
2023/09/11 06:49:25;;;;;;;6.88;5.90;;;28.40;99.90;;;;;;5024889;28;20210;-57
2023/09/11 06:51:52;;;;;;;13.60;6.10;;;27.70;99.90;;;;;;5025428;28;20225;-55
2023/09/11 06:54:18;;;;;;;9.75;6.15;;;27.20;99.90;;;;;;5023525;28;20277;-57
2023/09/11 06:56:46;;;;;;;11.10;6.35;;;27.40;99.90;;;;;;5022083;28;20210;-56
2023/09/11 06:59:13;;;;;;;11.57;5.60;;;28.10;99.90;;;;;;5023223;28;20214;-55
2023/09/11 07:01:40;;;;;;;7.43;5.05;;;29.20;99.90;;;;;;5025238;28;20572;-55
2023/09/11 07:04:10;;;;;;;5.60;5.10;;;30.00;99.90;;;;;;5024625;28;20264;-56
2023/09/11 07:06:37;;;;;;;7.75;5.43;;;30.90;99.90;;;;;;5022342;28;20211;-55
2023/09/11 07:09:05;;;;;;;7.18;5.57;;;31.90;99.90;;;;;;5022140;28;20206;-56
2023/09/11 07:11:31;;;;;;;9.40;5.65;;;32.60;99.90;;;;;;5013965;28;20257;-56
2023/09/11 07:13:59;;;;;;;6.32;5.00;;;33.30;99.90;;;;;;5021538;28;20230;-55
2023/09/11 07:16:26;;;;;;;5.72;4.95;;;33.90;99.90;;;;;;5025089;28;20209;-56
2023/09/11 07:18:53;;;;;;;6.35;5.00;;;34.60;99.70;;;;;;5025208;28;20218;-55
2023/09/11 07:21:19;;;;;;;6.63;5.30;;;35.20;97.60;;;;;;5022979;28;20293;-57
2023/09/11 07:23:46;;;;;;;5.90;4.72;;;35.50;96.40;;;;;;5021162;28;20295;-56
2023/09/11 07:26:13;;;;;;;5.43;4.93;;;35.80;95.30;;;;;;5022286;28;20297;-58
2023/09/11 07:28:57;;;;;;;7.20;4.65;;;36.40;94.10;;;;;;5024717;28;20202;-56
2023/09/11 07:31:25;;;;;;;9.05;5.10;;;36.90;92.30;;;;;;5022236;28;20257;-56
2023/09/11 07:33:52;;;;;;;7.53;5.40;;;37.10;91.10;;;;;;5021095;28;20254;-54
2023/09/11 07:36:19;;;;;;;7.50;5.28;;;37.20;90.40;;;;;;5023155;28;20206;-55
2023/09/11 07:38:46;;;;;;;7.95;4.28;;;37.50;89.10;;;;;;5024620;28;20279;-56
2023/09/11 07:41:15;;;;;;;7.47;4.72;;;37.80;87.40;;;;;;5023519;28;20668;-56
2023/09/11 07:43:44;;;;;;;5.95;4.90;;;37.90;85.80;;;;;;5070990;22;20228;-60
2023/09/11 07:46:10;;;;;;;9.95;5.47;;;38.10;84.00;;;;;;5084126;28;20203;-60
2023/09/11 07:48:38;;;;;;;8.45;5.28;;;38.10;81.70;;;;;;5080987;28;20212;-60
2023/09/11 07:51:05;;;;;;;8.52;4.82;;;38.20;81.30;;;;;;5081087;28;20221;-60
2023/09/11 07:53:32;;;;;;;5.50;5.00;;;38.20;80.40;;;;;;5072287;28;20350;-60
2023/09/11 07:55:58;;;;;;;11.32;5.20;;;37.80;80.70;;;;;;5080847;28;20205;-59
2023/09/11 07:58:25;;;;;;;7.25;4.90;;;37.20;81.20;;;;;;5083191;28;20673;-60
2023/09/11 08:00:52;;;;;;;9.38;5.10;;;36.40;83.80;;;;;;5084177;28;20224;-59
2023/09/11 08:03:19;;;;;;;7.47;4.88;;;35.60;84.70;;;;;;5072160;28;20256;-63
2023/09/11 08:05:47;;;;;;;7.55;4.88;;;34.80;86.20;;;;;;5083654;28;20208;-64
2023/09/11 08:08:14;;;;;;;6.78;5.63;;;33.60;89.60;;;;;;5082840;28;20201;-63
2023/09/11 08:10:40;;;;;;;7.75;5.38;;;32.40;91.40;;;;;;5080709;28;20598;-63
2023/09/11 08:13:07;;;;;;;6.18;5.03;;;31.50;92.70;;;;;;5080002;28;20232;-61
2023/09/11 08:15:34;;;;;;;7.53;5.10;;;30.80;94.40;;;;;;5084115;28;20205;-62
2023/09/11 08:18:00;;;;;;;12.05;5.57;;;30.10;95.90;;;;;;5083587;28;20212;-62
2023/09/11 08:20:27;;;;;;;9.07;5.93;;;29.50;97.30;;;;;;5080930;28;20221;-63
2023/09/11 08:22:57;;;;;;;12.57;6.63;;;29.00;98.80;;;;;;5079774;28;20204;-61
2023/09/11 08:25:24;;;;;;;10.80;7.15;;;28.70;99.90;;;;;;5082392;28;20701;-62
2023/09/11 08:27:51;;;;;;;10.95;7.75;;;28.30;99.90;;;;;;5080315;28;20205;-63
2023/09/11 08:30:17;;;;;;;9.10;6.25;;;28.10;99.90;;;;;;5064350;28;20608;-61
2023/09/11 08:32:44;;;;;;;8.48;7.35;;;27.90;99.90;;;;;;5060985;28;20208;-63
2023/09/11 08:35:10;;;;;;;12.40;8.00;;;27.70;99.90;;;;;;5054635;28;20217;-61
2023/09/11 08:37:37;;;;;;;8.85;7.63;;;27.40;99.90;;;;;;5078834;28;20275;-59
2023/09/11 08:40:07;;;;;;;13.63;7.57;;;27.20;99.90;;;;;;5079427;28;20216;-60
2023/09/11 08:42:34;;;;;;;7.75;6.63;;;27.10;99.90;;;;;;5071347;28;20197;-61
2023/09/11 08:45:01;;;;;;;9.45;6.30;;;27.00;99.90;;;;;;5079886;28;20242;-60
2023/09/11 08:47:31;;;;;;;10.73;6.53;;;27.00;99.90;;;;;;5082179;28;20208;-61
2023/09/11 08:50:04;;;;;;;10.98;6.45;;;26.90;99.90;;;;;;5083082;28;20201;-64
2023/09/11 08:52:31;;;;;;;9.25;6.60;;;26.70;99.90;;;;;;5079415;28;20201;-61
2023/09/11 08:55:02;;;;;;;10.13;6.30;;;26.50;99.90;;;;;;5079193;28;20227;-62
2023/09/11 08:57:33;;;;;;;8.93;5.30;;;26.50;99.90;;;;;;5082233;28;20204;-61
2023/09/11 09:00:06;;;;;;;6.03;5.43;;;26.60;99.90;;;;;;5082907;28;20200;-61
2023/09/11 09:02:34;;;;;;;12.45;6.78;;;26.80;99.90;;;;;;5078811;28;20212;-61
2023/09/11 09:05:03;;;;;;;10.48;5.35;;;26.90;99.90;;;;;;5079579;28;20224;-61
2023/09/11 09:07:32;;;;;;;7.30;5.38;;;27.00;99.90;;;;;;5081842;28;20196;-61
2023/09/11 09:09:59;;;;;;;5.97;5.10;;;27.10;99.90;;;;;;5083165;28;20204;-61
2023/09/11 09:12:27;;;;;;;8.93;5.55;;;27.20;99.90;;;;;;5079673;28;20231;-61
2023/09/11 09:14:55;;;;;;;8.27;5.10;;;27.10;99.90;;;;;;5078633;28;20713;-61
2023/09/11 09:17:22;;;;;;;9.48;5.47;;;27.10;99.90;;;;;;5081126;28;20211;-61
2023/09/11 09:19:49;;;;;;;6.22;5.00;;;27.20;99.90;;;;;;5082459;28;20200;-63
2023/09/11 09:22:17;;;;;;;8.40;4.95;;;27.20;99.90;;;;;;5081381;28;20538;-60
2023/09/11 09:24:52;;;;;;;9.93;5.47;;;27.30;99.90;;;;;;5079166;28;20553;-62
2023/09/11 09:27:19;;;;;;;5.60;4.95;;;27.40;99.90;;;;;;5080229;28;20666;-61
2023/09/11 09:29:48;;;;;;;8.90;5.40;;;27.60;99.90;;;;;;5082224;28;20582;-61
2023/09/11 09:32:17;;;;;;;7.57;5.80;;;27.60;99.90;;;;;;5081489;28;20611;-62
2023/09/11 09:34:49;;;;;;;10.32;5.47;;;27.50;99.90;;;;;;5079409;28;20582;-61
2023/09/11 09:37:17;;;;;;;6.63;5.40;;;27.60;99.90;;;;;;5080054;28;20238;-61
2023/09/11 09:39:45;;;;;;;7.13;5.82;;;27.70;99.90;;;;;;5082245;28;20669;-60
2023/09/11 09:42:12;;;;;;;7.53;5.75;;;27.80;99.90;;;;;;5082393;28;20222;-62
2023/09/11 09:44:40;;;;;;;9.82;5.85;;;27.90;99.90;;;;;;5078469;28;20316;-61
2023/09/11 09:47:08;;;;;;;9.45;6.28;;;27.90;99.90;;;;;;5079445;28;20211;-61
2023/09/11 09:49:46;;;;;;;9.20;5.43;;;28.00;99.90;;;;;;5079651;28;20274;-61
2023/09/11 09:52:13;;;;;;;7.95;6.00;;;28.10;99.90;;;;;;5082999;28;20641;-61
2023/09/11 09:54:49;;;;;;;7.68;5.90;;;28.20;99.90;;;;;;5086429;28;20222;-61
2023/09/11 09:57:17;;;;;;;9.77;5.40;;;28.30;99.90;;;;;;5085278;28;20302;-61
2023/09/11 09:59:49;;;;;;;7.82;5.43;;;28.50;99.90;;;;;;5082927;28;20200;-61
2023/09/11 10:02:23;;;;;;;7.57;5.55;;;28.40;99.90;;;;;;5083666;28;20205;-60
2023/09/11 10:04:55;;;;;;;6.78;4.97;;;28.40;99.90;;;;;;5085984;28;20220;-61
2023/09/11 10:07:37;;;;;;;8.38;5.68;;;28.50;99.90;;;;;;5084419;28;20223;-60
2023/09/11 10:10:21;;;;;;;9.73;5.75;;;28.50;99.90;;;;;;5082291;28;20619;-61
2023/09/11 10:12:51;;;;;;;6.65;5.43;;;28.60;99.90;;;;;;5075971;28;20270;-61
2023/09/11 10:15:18;;;;;;;6.47;4.75;;;28.80;99.90;;;;;;5083196;28;20215;-61
2023/09/11 10:17:45;;;;;;;7.10;5.10;;;28.90;99.90;;;;;;5086420;28;20204;-61
2023/09/11 10:20:14;;;;;;;6.72;4.93;;;29.00;99.90;;;;;;5085310;28;20669;-60
2023/09/11 10:22:40;;;;;;;8.27;5.32;;;29.20;99.90;;;;;;5082463;28;20197;-60
2023/09/11 10:25:07;;;;;;;10.02;5.07;;;29.30;99.90;;;;;;5082992;28;20220;-60
2023/09/11 10:27:35;;;;;;;10.18;4.90;;;29.40;99.90;;;;;;5086937;28;20211;-61
2023/09/11 10:30:05;;;;;;;7.70;5.00;;;29.50;99.90;;;;;;5087478;28;20204;-61
2023/09/11 10:32:38;;;;;;;8.02;5.05;;;29.50;99.90;;;;;;5081984;28;20253;-61
2023/09/11 10:35:06;;;;;;;8.38;4.13;;;29.60;99.90;;;;;;5081280;28;20212;-61
2023/09/11 10:37:39;;;;;;;6.25;4.50;;;29.60;98.20;;;;;;5082213;28;20196;-61
2023/09/11 10:40:08;;;;;;;7.50;5.05;;;29.40;98.80;;;;;;5081922;28;20205;-61
2023/09/11 10:42:34;;;;;;;7.88;5.03;;;29.40;99.60;;;;;;5084328;28;20192;-60
2023/09/11 10:45:03;;;;;;;8.32;4.57;;;29.30;99.40;;;;;;5084410;28;20341;-60
2023/09/11 10:47:30;;;;;;;7.30;4.20;;;29.40;98.00;;;;;;5082199;28;20205;-60
2023/09/11 10:49:58;;;;;;;5.43;4.07;;;29.40;96.80;;;;;;5081606;28;20662;-61
2023/09/11 10:52:25;;;;;;;14.82;5.10;;;29.50;96.80;;;;;;5083143;28;20234;-61
2023/09/11 10:54:53;;;;;;;11.65;5.25;;;29.60;97.20;;;;;;5084923;28;20243;-60
2023/09/11 10:57:20;;;;;;;10.40;4.40;;;29.60;97.80;;;;;;5083796;28;20204;-60
2023/09/11 10:59:47;;;;;;;7.50;4.35;;;29.60;97.20;;;;;;5081559;28;20204;-61
2023/09/11 11:02:14;;;;;;;8.13;4.65;;;29.70;96.90;;;;;;5080938;28;20701;-61
2023/09/11 11:04:41;;;;;;;12.45;4.65;;;29.80;97.10;;;;;;5084519;28;20302;-62
2023/09/11 11:07:09;;;;;;;7.30;4.70;;;29.90;96.90;;;;;;5084760;28;20587;-61
2023/09/11 11:09:37;;;;;;;7.82;4.50;;;30.00;97.00;;;;;;5081122;28;20212;-61
2023/09/11 11:12:08;;;;;;;8.57;4.40;;;30.10;96.20;;;;;;5081095;28;20340;-61
2023/09/11 11:14:36;;;;;;;9.73;4.45;;;30.10;96.60;;;;;;5084006;28;20321;-61
2023/09/11 11:17:07;;;;;;;8.88;4.22;;;30.20;97.40;;;;;;5084328;28;20700;-61
2023/09/11 11:19:37;;;;;;;6.85;4.28;;;30.20;96.60;;;;;;5081605;28;20204;-60
2023/09/11 11:22:07;;;;;;;12.93;4.55;;;30.30;96.60;;;;;;5080531;28;20620;-62
2023/09/11 11:24:35;;;;;;;8.07;3.78;;;30.30;95.40;;;;;;5084191;28;20391;-61
2023/09/11 11:27:03;;;;;;;6.53;3.88;;;30.30;94.90;;;;;;5084362;28;20630;-62
2023/09/11 11:29:32;;;;;;;11.60;5.50;;;30.40;94.20;;;;;;5081964;28;20208;-60
2023/09/11 11:31:59;;;;;;;8.27;4.88;;;30.50;94.60;;;;;;5080659;28;20217;-61
2023/09/11 11:34:31;;;;;;;8.27;4.30;;;30.60;94.50;;;;;;5081699;28;20235;-61
2023/09/11 11:36:59;;;;;;;8.65;4.13;;;30.80;94.00;;;;;;5084308;28;20669;-61
2023/09/11 11:39:26;;;;;;;8.25;4.35;;;30.90;94.00;;;;;;5082755;28;20227;-61
2023/09/11 11:41:55;;;;;;;6.00;3.88;;;30.90;93.70;;;;;;5080582;28;20208;-62
2023/09/11 11:44:22;;;;;;;11.07;4.18;;;30.90;93.60;;;;;;5081643;28;20233;-65
2023/09/11 11:46:52;;;;;;;9.98;4.30;;;31.00;93.60;;;;;;5083502;28;20196;-63
2023/09/11 11:49:20;;;;;;;8.32;4.15;;;30.90;94.50;;;;;;5083038;28;20299;-65
2023/09/11 11:51:47;;;;;;;7.95;4.38;;;30.80;94.70;;;;;;5080849;28;20251;-63
2023/09/11 11:54:24;;;;;;;10.85;4.40;;;30.70;94.50;;;;;;5080621;28;20523;-63
2023/09/11 11:56:55;;;;;;;8.52;4.70;;;30.60;94.60;;;;;;5084074;28;20204;-65
2023/09/11 11:59:22;;;;;;;10.18;4.65;;;30.60;95.00;;;;;;5082535;28;20243;-63
2023/09/11 12:01:50;;;;;;;10.80;4.25;;;30.60;94.60;;;;;;5080642;28;20204;-63
2023/09/11 12:04:18;;;;;;;7.75;4.40;;;30.70;94.40;;;;;;5080822;28;20437;-63
2023/09/11 12:06:45;;;;;;;18.45;9.38;;;30.80;94.10;;;;;;5083875;28;20462;-63
2023/09/11 12:09:11;;;;;;;8.80;4.55;;;30.90;94.10;;;;;;5083824;28;20212;-63
2023/09/11 12:11:40;;;;;;;7.32;4.00;;;30.90;93.80;;;;;;5080241;28;20225;-62
2023/09/11 12:14:11;;;;;;;9.25;3.92;;;30.90;93.70;;;;;;5078855;28;20282;-62
2023/09/11 12:16:38;;;;;;;10.30;4.35;;;31.00;93.20;;;;;;5083643;28;20313;-63
2023/09/11 12:19:07;;;;;;;11.40;4.32;;;31.10;92.80;;;;;;5083626;28;20210;-62
2023/09/11 12:21:34;;;;;;;10.85;3.90;;;31.10;92.90;;;;;;5080482;28;20775;-64
2023/09/11 12:24:03;;;;;;;10.35;4.03;;;31.20;92.10;;;;;;5079801;28;20240;-61
2023/09/11 12:26:30;;;;;;;9.75;3.78;;;31.10;91.90;;;;;;5081955;28;20212;-63
2023/09/11 12:28:58;;;;;;;5.10;3.70;;;31.10;91.80;;;;;;5083756;28;20207;-63
2023/09/11 12:31:25;;;;;;;8.57;3.55;;;31.20;91.50;;;;;;5081876;28;20212;-65
2023/09/11 12:33:58;;;;;;;6.60;3.50;;;31.40;91.20;;;;;;5079394;28;20701;-62
2023/09/11 12:36:26;;;;;;;7.25;4.15;;;31.60;91.20;;;;;;5081188;28;20235;-64
2023/09/11 12:38:53;;;;;;;8.50;4.10;;;31.70;90.50;;;;;;5083291;28;20205;-62
2023/09/11 12:41:21;;;;;;;9.43;4.10;;;31.90;90.30;;;;;;5082695;28;20207;-62
2023/09/11 12:43:48;;;;;;;10.90;4.60;;;32.00;89.80;;;;;;5079457;28;20249;-63
2023/09/11 12:46:16;;;;;;;9.15;4.22;;;32.00;90.10;;;;;;5079585;28;20220;-63
2023/09/11 12:48:45;;;;;;;9.13;3.78;;;32.10;89.10;;;;;;5071866;28;20571;-63